Aeroporto :
LOGIN :

Iscrizione | Disclaimer

   EN    FR    IT 

 










Sommario :    VFR   VFR Marginale   IFR   IFR Intensivo   IFR Molto Intensivo
Visibilità : 
Base nubi : 
>= 8 km
>= 3000ft
5 / 8 km
1000 / 3000 ft
1500m / 5 km
500 / 1000 ft
800 / 1500m
200 / 500 ft
< 800m
< 200 ft
Simboli :   Temporali  Nebbia  Neve Forte  Precipitazioni Forti  Vento > 20 kt
SIGMETs :   Varie  Temporali  Ghiacco  Turbolenza  Onda orograficha  Ceneri Vulcaniche






- Altitudine del aeroporto : 157 ft
- Codice IATA : LIL


LFQQ - Lille Lesquin

ULTIMO METAR :
  • 191130Z AUTO 19012KT 9999 SCT022 SCT180 15/09 Q1003 TEMPO BKN025CB

METARs OBSOLETI :
  • 191100Z AUTO 21011KT 9999 BKN021 BKN064 14/10 Q1003 TEMPO BKN025CB
  • 191030Z AUTO 21013KT 9999 BKN020 BKN068 BKN170 14/09 Q1003 TEMPO BKN025CB
  • 191000Z AUTO 20012KT 9999 SCT017 SCT023 BKN084 14/10 Q1004 TEMPO BKN025CB
  • 190930Z AUTO 19011KT 9999 FEW019 BKN094 13/10 Q1003 TEMPO BKN025CB

TAF TAF LFQQ
Valido dal 19 a 12 ore il 20 a 18 ore UTC


191100Z 1912/2018 20012KT 9999 SCT030
TEMPO 1912/1918 BKN025CB
PROB40 1920/2006 3000 BR
BECMG 1921/1924 VRB02KT
PROB30 2000/2006 0500 FG VV///
TEMPO 2006/2018 4000 RA BKN012 OVC040
BECMG 2010/2012 03012KT
ATIS : +33 3 20 16 19 54



MetMap, La meteo Aeronautica in un colpo d'occhio ! - Copyright ORBIFLY Dicembre 2007 - Disclaimer

ORBIFLY MET'MAP TEAM :

Programmazione e sviluppo : Alexandra Zaïnal
Concezione e sviluppo : Baudouin d'Aumeries
Co-Programmazione e sviluppo : Marc-Olivier Méhu
Supporto tecnico e logistico : Manuel Goepfert
Aiuto per la traduzione : Arnaldo La Scala

Contatto : metmap@orbifly.com




FONTI E CREDITI :

   NOAA